createdAt,value
2018-07-28T00:00:52.965Z,57.67
2018-07-28T00:01:52.993Z,57.40
2018-07-28T00:02:53.007Z,57.86
2018-07-28T00:03:53.040Z,57.67
2018-07-28T00:04:53.063Z,57.57
2018-07-28T00:05:53.080Z,58.34
2018-07-28T00:06:53.107Z,57.96
2018-07-28T00:07:53.133Z,58.54
2018-07-28T00:08:53.165Z,58.34
2018-07-28T00:09:53.177Z,58.44
2018-07-28T00:10:53.198Z,58.34
2018-07-28T00:11:53.221Z,58.51
2018-07-28T00:12:53.248Z,58.34
2018-07-28T00:13:53.273Z,58.44
2018-07-28T00:14:53.293Z,58.05
2018-07-28T00:15:53.325Z,57.44
2018-07-28T00:16:53.336Z,57.86
2018-07-28T00:17:53.370Z,58.54
2018-07-28T00:18:53.410Z,57.93
2018-07-28T00:19:53.422Z,58.61
2018-07-28T00:20:53.447Z,59.36
2018-07-28T00:21:53.465Z,59.38
2018-07-28T00:22:53.487Z,58.61
2018-07-28T00:23:53.514Z,58.12
2018-07-28T00:24:53.534Z,58.31
2018-07-28T00:25:53.576Z,59.64
2018-07-28T00:26:53.578Z,59.48
2018-07-28T00:27:53.603Z,59.00
2018-07-28T00:28:53.637Z,58.90
2018-07-28T00:29:53.650Z,59.64
2018-07-28T00:30:53.670Z,60.52
2018-07-28T00:31:53.695Z,60.13
2018-07-28T00:32:53.726Z,59.67
2018-07-28T00:33:53.753Z,59.64
2018-07-28T00:34:53.784Z,59.94
2018-07-28T00:35:53.794Z,60.23
2018-07-28T00:36:53.829Z,60.91
2018-07-28T00:37:53.863Z,60.61
2018-07-28T00:38:53.865Z,60.32
2018-07-28T00:39:53.896Z,60.91
2018-07-28T00:40:53.917Z,61.75
2018-07-28T00:41:53.941Z,61.17
2018-07-28T00:42:53.965Z,61.39
2018-07-28T00:43:53.982Z,60.42
2018-07-28T00:44:54.008Z,60.03
2018-07-28T00:45:54.037Z,60.32
2018-07-28T00:46:54.058Z,60.32
2018-07-28T00:47:54.084Z,61.26
2018-07-28T00:48:54.107Z,60.97
2018-07-28T00:49:54.125Z,61.36
2018-07-28T00:50:54.148Z,61.85
2018-07-28T00:51:54.188Z,62.33
2018-07-28T00:52:54.217Z,62.91
2018-07-28T00:53:54.222Z,63.10
2018-07-28T00:54:54.248Z,62.13
2018-07-28T00:55:54.279Z,61.85
2018-07-28T00:56:54.290Z,61.85
2018-07-28T00:57:54.322Z,64.01
2018-07-28T00:58:54.340Z,64.04
2018-07-28T00:59:54.373Z,64.59
2018-07-28T01:00:54.391Z,63.65
2018-07-28T01:01:54.414Z,64.20
2018-07-28T01:02:54.439Z,63.46
2018-07-28T01:03:54.460Z,63.37
2018-07-28T01:04:54.481Z,63.37
2018-07-28T01:05:54.503Z,63.65
2018-07-28T01:06:54.538Z,64.01
2018-07-28T01:07:54.553Z,64.98
2018-07-28T01:08:54.581Z,64.59
2018-07-28T01:09:54.601Z,64.69
2018-07-28T01:10:54.627Z,64.59
2018-07-28T01:11:54.645Z,64.69
2018-07-28T01:12:54.677Z,64.20
2018-07-28T01:13:54.692Z,64.11
2018-07-28T01:14:54.720Z,64.79
2018-07-28T01:15:54.767Z,65.92
2018-07-28T01:16:54.781Z,65.63
2018-07-28T01:17:54.785Z,66.02
2018-07-28T01:18:54.806Z,67.05
2018-07-28T01:19:54.835Z,66.50
2018-07-28T01:20:54.858Z,66.11
2018-07-28T01:21:54.879Z,65.08
2018-07-28T01:22:54.904Z,65.56
2018-07-28T01:23:54.922Z,65.66
2018-07-28T01:24:54.950Z,65.92
2018-07-28T01:25:54.976Z,66.11
2018-07-28T01:26:54.998Z,65.17
2018-07-28T01:27:55.022Z,66.60
2018-07-28T01:28:55.048Z,67.53
2018-07-28T01:29:55.089Z,66.88
2018-07-28T01:30:55.085Z,66.50
2018-07-28T01:31:55.120Z,66.11
2018-07-28T01:32:55.137Z,66.98
2018-07-28T01:33:55.161Z,66.69
2018-07-28T01:34:55.183Z,66.30
2018-07-28T01:35:55.208Z,66.02
2018-07-28T01:36:55.234Z,66.78
2018-07-28T01:37:55.248Z,66.69
2018-07-28T01:38:55.282Z,66.88
2018-07-28T01:39:55.306Z,67.56
2018-07-28T01:40:55.322Z,67.56
2018-07-28T01:41:55.365Z,66.95
2018-07-28T01:42:55.370Z,66.50
2018-07-28T01:43:55.389Z,66.40
2018-07-28T01:44:55.413Z,66.60
2018-07-28T01:45:55.447Z,67.14
2018-07-28T01:46:55.465Z,67.24
2018-07-28T01:47:55.480Z,67.33
2018-07-28T01:48:55.523Z,67.14
2018-07-28T01:49:55.531Z,67.14
2018-07-28T01:50:55.557Z,68.46
2018-07-28T01:51:55.589Z,67.98
2018-07-28T01:52:55.621Z,68.27
2018-07-28T01:53:55.633Z,68.85
2018-07-28T01:54:55.646Z,69.30
2018-07-28T01:55:55.665Z,69.59
2018-07-28T01:56:55.703Z,70.56
2018-07-28T01:57:55.719Z,71.20
2018-07-28T01:58:55.743Z,70.36
2018-07-28T01:59:55.765Z,69.14
2018-07-28T02:00:55.797Z,69.33
2018-07-28T02:01:55.809Z,69.04
2018-07-28T02:02:55.824Z,68.37
2018-07-28T02:03:55.861Z,68.30
2018-07-28T02:04:55.877Z,68.11
2018-07-28T02:05:55.899Z,68.01
2018-07-28T02:06:55.925Z,67.82
2018-07-28T02:07:55.946Z,68.01
2018-07-28T02:08:55.972Z,67.24
2018-07-28T02:09:56.000Z,68.37
2018-07-28T02:10:56.012Z,68.27
2018-07-28T02:11:56.045Z,68.21
2018-07-28T02:12:56.063Z,67.72
2018-07-28T02:13:56.084Z,67.72
2018-07-28T02:14:56.102Z,68.11
2018-07-28T02:15:56.134Z,68.40
2018-07-28T02:16:56.156Z,67.63
2018-07-28T02:17:56.175Z,67.91
2018-07-28T02:18:56.220Z,67.53
2018-07-28T02:19:56.222Z,67.33
2018-07-28T02:20:56.252Z,66.95
2018-07-28T02:21:56.275Z,66.78
2018-07-28T02:22:56.285Z,67.05
2018-07-28T02:23:56.310Z,67.24
2018-07-28T02:24:56.346Z,67.63
2018-07-28T02:25:56.357Z,67.82
2018-07-28T02:26:56.382Z,66.95
2018-07-28T02:27:56.401Z,67.14
2018-07-28T02:28:56.432Z,67.82
2018-07-28T02:29:56.448Z,67.72
2018-07-28T02:30:56.474Z,68.11
2018-07-28T02:31:56.499Z,68.21
2018-07-28T02:32:56.538Z,67.82
2018-07-28T02:33:56.560Z,68.85
2018-07-28T02:34:56.575Z,70.26
2018-07-28T02:35:56.587Z,70.40
2018-07-28T02:36:56.609Z,71.14
2018-07-28T02:37:56.635Z,71.10
2018-07-28T02:38:56.662Z,71.78
2018-07-28T02:39:56.680Z,72.55
2018-07-28T02:40:56.711Z,73.03
2018-07-28T02:41:56.728Z,71.81
2018-07-28T02:42:56.751Z,71.58
2018-07-28T02:43:56.775Z,70.94
2018-07-28T02:44:56.795Z,70.36
2018-07-28T02:45:56.817Z,70.20
2018-07-28T02:46:56.849Z,70.01
2018-07-28T02:47:56.865Z,69.33
2018-07-28T02:48:56.885Z,69.33
2018-07-28T02:49:56.909Z,69.92
2018-07-28T02:50:56.949Z,69.43
2018-07-28T02:51:56.968Z,69.92
2018-07-28T02:52:56.982Z,69.72
2018-07-28T02:53:57.006Z,70.17
2018-07-28T02:54:57.026Z,69.82
2018-07-28T02:55:57.051Z,68.95
2018-07-28T02:56:57.074Z,68.66
2018-07-28T02:57:57.095Z,69.04
2018-07-28T02:58:57.129Z,68.66
2018-07-28T02:59:57.143Z,68.21
2018-07-28T03:00:57.159Z,68.95
2018-07-28T03:01:57.190Z,70.30
2018-07-28T03:02:57.205Z,69.53
2018-07-28T03:03:57.241Z,69.62
2018-07-28T03:04:57.255Z,69.14
2018-07-28T03:05:57.290Z,69.53
2018-07-28T03:06:57.297Z,69.04
2018-07-28T03:07:57.325Z,69.33
2018-07-28T03:08:57.348Z,69.24
2018-07-28T03:09:57.370Z,70.01
2018-07-28T03:10:57.398Z,70.20
2018-07-28T03:11:57.430Z,69.72
2018-07-28T03:12:57.436Z,69.04
2018-07-28T03:13:57.462Z,68.85
2018-07-28T03:14:57.485Z,68.46
2018-07-28T03:15:57.508Z,68.88
2018-07-28T03:16:57.538Z,69.24
2018-07-28T03:17:57.562Z,68.85
2018-07-28T03:18:57.574Z,69.04
2018-07-28T03:19:57.599Z,69.33
2018-07-28T03:20:57.625Z,68.66
2018-07-28T03:21:57.642Z,68.95
2018-07-28T03:22:57.672Z,69.14
2018-07-28T03:23:57.687Z,70.36
2018-07-28T03:24:57.718Z,70.07
2018-07-28T03:25:57.743Z,69.24
2018-07-28T03:26:57.759Z,68.85
2018-07-28T03:27:57.791Z,69.53
2018-07-28T03:28:57.828Z,69.72
2018-07-28T03:29:57.823Z,70.23
2018-07-28T03:30:57.853Z,70.72
2018-07-28T03:31:57.875Z,71.20
2018-07-28T03:32:57.895Z,71.78
2018-07-28T03:33:57.915Z,71.78
2018-07-28T03:34:57.938Z,71.78
2018-07-28T03:35:57.968Z,70.94
2018-07-28T03:36:57.984Z,70.84
2018-07-28T03:37:58.010Z,69.88
2018-07-28T03:38:58.030Z,69.98
2018-07-28T03:39:58.067Z,70.07
2018-07-28T03:40:58.090Z,70.36
2018-07-28T03:41:58.117Z,70.10
2018-07-28T03:42:58.123Z,69.59
2018-07-28T03:43:58.146Z,70.01
2018-07-28T03:44:58.168Z,69.53
2018-07-28T03:45:58.197Z,69.49
2018-07-28T03:46:58.212Z,70.07
2018-07-28T03:47:58.238Z,70.10
2018-07-28T03:48:58.263Z,70.26
2018-07-28T03:49:58.285Z,71.23
2018-07-28T03:50:58.315Z,70.94
2018-07-28T03:51:58.327Z,71.62
2018-07-28T03:52:58.374Z,70.84
2018-07-28T03:53:58.373Z,71.88
2018-07-28T03:54:58.398Z,72.64
2018-07-28T03:55:58.421Z,72.74
2018-07-28T03:56:58.449Z,72.45
2018-07-28T03:57:58.467Z,73.09
2018-07-28T03:58:58.499Z,73.28
2018-07-28T03:59:58.538Z,72.84
2018-07-28T04:00:58.555Z,73.48
2018-07-28T04:01:58.570Z,74.16
2018-07-28T04:02:58.584Z,74.25
2018-07-28T04:03:58.617Z,74.79
2018-07-28T04:04:58.626Z,75.22
2018-07-28T04:05:58.647Z,74.16
2018-07-28T04:06:58.669Z,73.67
2018-07-28T04:07:58.691Z,73.28
2018-07-28T04:08:58.717Z,73.58
2018-07-28T04:09:58.738Z,74.69
2018-07-28T04:10:58.769Z,75.67
2018-07-28T04:11:58.782Z,75.95
2018-07-28T04:12:58.819Z,75.76
2018-07-28T04:13:58.837Z,76.15
2018-07-28T04:14:58.862Z,76.05
2018-07-28T04:15:58.879Z,75.85
2018-07-28T04:16:58.895Z,75.85
2018-07-28T04:17:58.924Z,74.73
2018-07-28T04:18:58.945Z,73.90
2018-07-28T04:19:58.966Z,73.32
2018-07-28T04:20:58.984Z,72.84
2018-07-28T04:21:59.005Z,73.22
2018-07-28T04:22:59.031Z,72.94
2018-07-28T04:23:59.054Z,71.88
2018-07-28T04:24:59.078Z,71.23
2018-07-28T04:25:59.100Z,71.23
2018-07-28T04:26:59.133Z,71.97
2018-07-28T04:27:59.151Z,73.03
2018-07-28T04:28:59.164Z,73.58
2018-07-28T04:29:59.192Z,73.32
2018-07-28T04:30:59.218Z,72.36
2018-07-28T04:31:59.245Z,73.42
2018-07-28T04:32:59.256Z,73.22
2018-07-28T04:33:59.285Z,73.16
2018-07-28T04:34:59.313Z,71.91
2018-07-28T04:35:59.334Z,72.30
2018-07-28T04:36:59.376Z,72.97
2018-07-28T04:37:59.373Z,73.42
2018-07-28T04:38:59.399Z,74.48
2018-07-28T04:39:59.421Z,75.31
2018-07-28T04:40:59.441Z,75.79
2018-07-28T04:41:59.478Z,75.31
2018-07-28T04:42:59.493Z,74.77
2018-07-28T04:43:59.537Z,72.74
2018-07-28T04:44:59.538Z,73.07
2018-07-28T04:45:59.553Z,72.00
2018-07-28T04:46:59.579Z,72.52
2018-07-28T04:47:59.604Z,71.66
2018-07-28T04:48:59.627Z,71.26
2018-07-28T04:49:59.659Z,71.08
2018-07-28T04:50:59.684Z,71.36
2018-07-28T04:51:59.690Z,71.17
2018-07-28T04:52:59.718Z,70.88
2018-07-28T04:53:59.742Z,72.39
2018-07-28T04:54:59.765Z,73.61
2018-07-28T04:55:59.783Z,75.60
2018-07-28T04:56:59.809Z,75.74
2018-07-28T04:57:59.837Z,75.84
2018-07-28T04:58:59.862Z,75.26
2018-07-28T04:59:59.880Z,75.74
2018-07-28T05:00:59.901Z,75.74
2018-07-28T05:01:59.927Z,74.04
2018-07-28T05:02:59.945Z,72.36
2018-07-28T05:03:59.970Z,70.76
2018-07-28T05:04:59.998Z,69.73
2018-07-28T05:06:00.029Z,68.27
2018-07-28T05:07:00.043Z,67.47
2018-07-28T05:08:00.063Z,65.75
2018-07-28T05:09:00.093Z,64.65
2018-07-28T05:10:00.120Z,61.15
2018-07-28T05:11:00.142Z,60.05
2018-07-28T05:12:00.169Z,57.86
2018-07-28T05:13:00.188Z,56.33
2018-07-28T05:14:00.220Z,55.29
2018-07-28T05:15:00.259Z,54.14
2018-07-28T05:16:00.273Z,54.50
2018-07-28T05:17:00.296Z,54.68
2018-07-28T05:18:00.320Z,54.75
2018-07-28T05:19:00.346Z,55.52
2018-07-28T05:20:00.373Z,54.77
2018-07-28T05:21:00.401Z,53.17
2018-07-28T05:22:00.433Z,52.12
2018-07-28T05:23:00.450Z,52.05
2018-07-28T05:24:00.491Z,50.83
2018-07-28T05:25:00.506Z,50.27
2018-07-28T05:26:00.536Z,48.50
2018-07-28T05:27:00.571Z,49.75
2018-07-28T05:28:00.591Z,48.43
2018-07-28T05:29:00.615Z,47.40
2018-07-28T05:30:00.648Z,46.13
2018-07-28T05:31:00.675Z,45.81
2018-07-28T05:32:00.696Z,46.50
2018-07-28T05:33:00.731Z,46.23
2018-07-28T05:34:00.761Z,45.81
2018-07-28T05:35:00.781Z,46.69
2018-07-28T05:36:00.822Z,46.72
2018-07-28T05:37:00.852Z,45.29
2018-07-28T05:38:00.874Z,45.42
2018-07-28T05:39:00.903Z,46.84
2018-07-28T05:40:00.933Z,50.12
2018-07-28T05:41:00.957Z,49.48
2018-07-28T05:42:00.985Z,47.85
2018-07-28T05:43:01.015Z,47.08
2018-07-28T05:44:01.046Z,45.88
2018-07-28T05:45:01.074Z,44.13
2018-07-28T05:46:01.106Z,43.39
2018-07-28T05:47:01.133Z,42.14
2018-07-28T05:48:01.178Z,41.69
2018-07-28T05:49:01.197Z,41.00
2018-07-28T05:50:01.233Z,41.69
2018-07-28T05:51:01.258Z,41.17
2018-07-28T05:52:01.280Z,40.64
2018-07-28T05:53:01.322Z,39.11
2018-07-28T05:54:01.354Z,38.06
2018-07-28T05:55:01.392Z,36.61
2018-07-28T05:56:01.408Z,35.53
2018-07-28T05:57:01.442Z,35.52
2018-07-28T05:58:01.468Z,35.79
2018-07-28T05:59:01.491Z,37.05
2018-07-28T06:00:01.528Z,36.21
2018-07-28T06:01:01.552Z,35.15
2018-07-28T06:02:01.583Z,35.45
2018-07-28T06:03:01.617Z,34.36
2018-07-28T06:04:01.651Z,34.94
2018-07-28T06:05:01.674Z,35.52
2018-07-28T06:06:01.710Z,35.71
2018-07-28T06:07:01.739Z,36.63
2018-07-28T06:08:01.768Z,36.27
2018-07-28T06:09:01.803Z,35.50
2018-07-28T06:10:01.839Z,37.87
2018-07-28T06:11:01.866Z,38.48
2018-07-28T06:12:01.896Z,38.74
2018-07-28T06:13:01.928Z,39.17
2018-07-28T06:14:01.975Z,38.15
2018-07-28T06:15:01.993Z,40.56
2018-07-28T06:16:02.021Z,40.45
2018-07-28T06:17:02.058Z,41.61
2018-07-28T06:18:02.088Z,40.86
2018-07-28T06:19:02.119Z,41.14
2018-07-28T06:20:02.150Z,41.24
2018-07-28T06:21:02.179Z,40.84
2018-07-28T06:22:02.282Z,40.96
2018-07-28T06:23:02.238Z,39.70
2018-07-28T06:24:02.275Z,38.58
2018-07-28T06:25:02.305Z,38.34
2018-07-28T06:26:02.388Z,39.72
2018-07-28T06:27:02.367Z,38.74
2018-07-28T06:28:02.398Z,39.21
2018-07-28T06:29:02.424Z,38.54
2018-07-28T06:30:02.457Z,39.78
2018-07-28T06:31:02.496Z,39.40
2018-07-28T06:32:02.618Z,40.17
2018-07-28T06:33:02.558Z,38.07
2018-07-28T06:34:02.596Z,37.51
2018-07-28T06:35:02.615Z,37.46
2018-07-28T06:36:02.652Z,39.11
2018-07-28T06:37:02.678Z,39.03
2018-07-28T06:38:02.717Z,39.15
2018-07-28T06:39:02.762Z,38.64
2018-07-28T06:40:02.775Z,38.17
2018-07-28T06:41:02.804Z,38.76
2018-07-28T06:42:02.841Z,37.55
2018-07-28T06:43:02.859Z,36.38
2018-07-28T06:44:02.891Z,36.35
2018-07-28T06:45:02.921Z,36.27
2018-07-28T06:46:02.963Z,34.48
2018-07-28T06:47:02.987Z,33.03
2018-07-28T06:48:03.022Z,33.01
2018-07-28T06:49:03.059Z,34.74
2018-07-28T06:50:03.080Z,34.17
2018-07-28T06:51:03.116Z,34.46
2018-07-28T06:52:03.142Z,34.50
2018-07-28T06:53:03.186Z,33.41
2018-07-28T06:54:03.209Z,33.87
2018-07-28T06:55:03.244Z,35.84
2018-07-28T06:56:03.278Z,39.88
2018-07-28T06:57:03.308Z,40.80
2018-07-28T06:58:03.336Z,41.76
2018-07-28T06:59:03.362Z,40.09
2018-07-28T07:00:03.431Z,37.32
2018-07-28T07:01:03.430Z,36.13
2018-07-28T07:02:03.456Z,37.48
2018-07-28T07:03:03.489Z,38.62
2018-07-28T07:04:03.515Z,38.13
2018-07-28T07:05:03.547Z,39.00
2018-07-28T07:06:03.576Z,38.85
2018-07-28T07:07:03.604Z,37.04
2018-07-28T07:08:03.644Z,36.13
2018-07-28T07:09:03.696Z,36.82
2018-07-28T07:10:03.713Z,36.94
2018-07-28T07:11:03.729Z,36.65
2018-07-28T07:12:03.764Z,35.88
2018-07-28T07:13:03.806Z,35.00
2018-07-28T07:14:03.842Z,34.05
2018-07-28T07:15:03.855Z,33.42
2018-07-28T07:16:03.888Z,30.98
2018-07-28T07:17:03.936Z,30.02
2018-07-28T07:18:03.949Z,29.44
2018-07-28T07:19:03.977Z,29.74
2018-07-28T07:20:04.018Z,29.94
2018-07-28T07:21:04.047Z,28.85
2018-07-28T07:22:04.076Z,28.66
2018-07-28T07:23:04.124Z,28.88
2018-07-28T07:24:04.146Z,27.81
2018-07-28T07:25:04.178Z,27.89
2018-07-28T07:26:04.208Z,27.98
2018-07-28T07:27:04.242Z,28.58
2018-07-28T07:28:04.270Z,28.73
2018-07-28T07:29:04.305Z,29.34
2018-07-28T07:30:04.332Z,28.35
2018-07-28T07:31:04.364Z,28.08
2018-07-28T07:32:04.420Z,27.97
2018-07-28T07:33:04.432Z,27.58
2018-07-28T07:34:04.463Z,27.11
2018-07-28T07:35:04.501Z,26.65
2018-07-28T07:36:04.566Z,26.81
2018-07-28T07:37:04.559Z,28.70
2018-07-28T07:38:04.588Z,29.39
2018-07-28T07:39:04.629Z,29.71
2018-07-28T07:40:04.674Z,29.48
2018-07-28T07:41:04.696Z,30.16
2018-07-28T07:42:04.728Z,30.06
2018-07-28T07:43:04.762Z,30.06
2018-07-28T07:44:04.795Z,31.13
2018-07-28T07:45:04.816Z,31.12
2018-07-28T07:46:04.852Z,31.12
2018-07-28T07:47:04.886Z,30.18
2018-07-28T07:48:04.918Z,30.87
2018-07-28T07:49:04.966Z,31.01
2018-07-28T07:50:04.986Z,31.15
2018-07-28T07:51:05.031Z,29.86
2018-07-28T07:52:05.045Z,30.34
2018-07-28T07:53:05.080Z,32.18
2018-07-28T07:54:05.110Z,31.22
2018-07-28T07:55:05.146Z,31.82
2018-07-28T07:56:05.191Z,31.79
2018-07-28T07:57:05.213Z,32.57
2018-07-28T07:58:05.254Z,30.29
2018-07-28T07:59:05.301Z,30.85
2018-07-28T08:00:05.306Z,28.75
2018-07-28T08:01:05.337Z,26.93
2018-07-28T08:02:05.380Z,27.37
2018-07-28T08:03:05.400Z,28.06
2018-07-28T08:04:05.439Z,27.71
2018-07-28T08:05:05.464Z,28.45
2018-07-28T08:06:05.495Z,29.11
2018-07-28T08:07:05.543Z,27.57
2018-07-28T08:08:05.569Z,28.17
2018-07-28T08:09:05.605Z,28.69
2018-07-28T08:10:05.638Z,29.19
2018-07-28T08:11:05.667Z,29.86
2018-07-28T08:12:05.692Z,30.81
2018-07-28T08:13:05.727Z,32.84
2018-07-28T08:14:05.763Z,31.90
2018-07-28T08:15:05.814Z,30.18
2018-07-28T08:16:05.815Z,26.87
2018-07-28T08:17:05.854Z,29.28
2018-07-28T08:18:05.884Z,29.47
2018-07-28T08:19:05.929Z,30.91
2018-07-28T08:20:05.947Z,30.64
2018-07-28T08:21:06.054Z,30.24
2018-07-28T08:22:06.022Z,31.13
2018-07-28T08:23:06.041Z,31.30
2018-07-28T08:24:06.076Z,30.05
2018-07-28T08:25:06.119Z,29.90
2018-07-28T08:26:06.138Z,28.61
2018-07-28T08:27:06.170Z,28.94
2018-07-28T08:28:06.192Z,29.74
2018-07-28T08:29:06.233Z,31.01
2018-07-28T08:30:06.259Z,31.02
2018-07-28T08:31:06.299Z,31.33
2018-07-28T08:32:06.325Z,30.08
2018-07-28T08:33:06.363Z,30.46
2018-07-28T08:34:06.390Z,30.36
2018-07-28T08:35:06.421Z,30.09
2018-07-28T08:36:06.440Z,29.90
2018-07-28T08:37:06.492Z,29.88
2018-07-28T08:38:06.512Z,30.81
2018-07-28T08:39:06.534Z,29.95
2018-07-28T08:40:06.672Z,30.26
2018-07-28T08:41:06.598Z,31.29
2018-07-28T08:42:06.623Z,31.26
2018-07-28T08:43:06.649Z,31.38
2018-07-28T08:44:06.680Z,30.10
2018-07-28T08:45:06.709Z,30.20
2018-07-28T08:46:06.741Z,31.29
2018-07-28T08:47:06.772Z,33.34
2018-07-28T08:48:06.801Z,33.25
2018-07-28T08:49:06.974Z,32.59
2018-07-28T08:50:06.862Z,32.38
2018-07-28T08:51:06.889Z,33.36
2018-07-28T08:52:06.918Z,33.44
2018-07-28T08:53:06.952Z,33.84
2018-07-28T08:54:06.976Z,33.48
2018-07-28T08:55:06.993Z,32.52
2018-07-28T08:56:07.024Z,32.04
2018-07-28T08:57:07.054Z,31.67
2018-07-28T08:58:07.094Z,31.17
2018-07-28T08:59:07.115Z,31.45
2018-07-28T09:00:07.136Z,32.79
2018-07-28T09:01:07.168Z,33.46
2018-07-28T09:02:07.197Z,33.26
2018-07-28T09:03:07.227Z,33.56
2018-07-28T09:04:07.250Z,34.33
2018-07-28T09:05:07.277Z,33.94
2018-07-28T09:06:07.307Z,32.98
2018-07-28T09:07:07.336Z,32.62
2018-07-28T09:08:07.371Z,32.41
2018-07-28T09:09:07.388Z,33.08
2018-07-28T09:10:07.418Z,32.18
2018-07-28T09:11:07.447Z,32.57
2018-07-28T09:12:07.474Z,32.89
2018-07-28T09:13:07.508Z,33.53
2018-07-28T09:14:07.529Z,33.26
2018-07-28T09:15:07.557Z,33.62
2018-07-28T09:16:07.592Z,35.46
2018-07-28T09:17:07.616Z,35.67
2018-07-28T09:18:07.641Z,35.38
2018-07-28T09:19:07.672Z,35.31
2018-07-28T09:20:07.690Z,34.61
2018-07-28T09:21:07.727Z,33.86
2018-07-28T09:22:07.750Z,33.74
2018-07-28T09:23:07.778Z,34.15
2018-07-28T09:24:07.810Z,34.20
2018-07-28T09:25:07.865Z,34.90
2018-07-28T09:26:07.872Z,35.28
2018-07-28T09:27:07.905Z,35.62
2018-07-28T09:28:07.920Z,36.11
2018-07-28T09:29:07.948Z,36.40
2018-07-28T09:30:07.974Z,37.46
2018-07-28T09:31:07.993Z,37.17
2018-07-28T09:32:08.033Z,37.17
2018-07-28T09:33:08.056Z,37.74
2018-07-28T09:34:08.086Z,37.86
2018-07-28T09:35:08.101Z,37.96
2018-07-28T09:36:08.137Z,38.45
2018-07-28T09:37:08.159Z,40.25
2018-07-28T09:38:08.211Z,41.21
2018-07-28T09:39:08.223Z,42.21
2018-07-28T09:40:08.239Z,43.09
2018-07-28T09:41:08.270Z,42.11
2018-07-28T09:42:08.291Z,41.89
2018-07-28T09:43:08.320Z,41.82
2018-07-28T09:44:08.367Z,41.84
2018-07-28T09:45:08.375Z,41.62
2018-07-28T09:46:08.405Z,42.48
2018-07-28T09:47:08.431Z,42.02
2018-07-28T09:48:08.461Z,41.80
2018-07-28T09:49:08.489Z,41.62
2018-07-28T09:50:08.513Z,42.02
2018-07-28T09:51:08.535Z,40.58
2018-07-28T09:52:08.563Z,40.88
2018-07-28T09:53:08.589Z,41.45
2018-07-28T09:54:08.619Z,41.64
2018-07-28T09:55:08.639Z,41.35
2018-07-28T09:56:08.672Z,40.66
2018-07-28T09:57:08.707Z,41.82
2018-07-28T09:58:08.728Z,41.92
2018-07-28T09:59:08.743Z,41.17
2018-07-28T10:00:08.777Z,41.84
2018-07-28T10:01:08.804Z,40.98
2018-07-28T10:02:08.840Z,40.98
2018-07-28T10:03:08.846Z,40.58
2018-07-28T10:04:08.884Z,40.09
2018-07-28T10:05:08.911Z,39.92
2018-07-28T10:06:08.952Z,39.64
2018-07-28T10:07:08.951Z,38.31
2018-07-28T10:08:09.007Z,38.09
2018-07-28T10:09:09.014Z,39.45
2018-07-28T10:10:09.038Z,39.14
2018-07-28T10:11:09.057Z,37.82
2018-07-28T10:12:09.085Z,37.21
2018-07-28T10:13:09.118Z,37.70
2018-07-28T10:14:09.170Z,38.07
2018-07-28T10:15:09.168Z,38.09
2018-07-28T10:16:09.202Z,36.82
2018-07-28T10:17:09.247Z,36.15
2018-07-28T10:18:09.250Z,35.97
2018-07-28T10:19:09.275Z,35.57
2018-07-28T10:20:09.303Z,35.59
2018-07-28T10:21:09.324Z,35.49
2018-07-28T10:22:09.360Z,35.75
2018-07-28T10:23:09.386Z,35.77
2018-07-28T10:24:09.408Z,35.59
2018-07-28T10:25:09.478Z,35.51
2018-07-28T10:26:09.461Z,34.72
2018-07-28T10:27:09.491Z,34.43
2018-07-28T10:28:09.512Z,34.33
2018-07-28T10:29:09.546Z,34.43
2018-07-28T10:30:09.641Z,33.64
2018-07-28T10:31:09.592Z,34.13
2018-07-28T10:32:09.618Z,33.65
2018-07-28T10:33:09.656Z,33.92
2018-07-28T10:34:09.687Z,36.15
2018-07-28T10:35:09.710Z,37.40
2018-07-28T10:36:09.742Z,38.23
2018-07-28T10:37:09.764Z,40.03
2018-07-28T10:38:09.794Z,40.72
2018-07-28T10:39:09.813Z,41.39
2018-07-28T10:40:09.847Z,41.66
2018-07-28T10:41:09.863Z,42.61
2018-07-28T10:42:09.894Z,42.71
2018-07-28T10:43:09.925Z,42.22
2018-07-28T10:44:09.946Z,42.61
2018-07-28T10:45:09.978Z,42.42
2018-07-28T10:46:10.004Z,42.50
2018-07-28T10:47:10.020Z,42.79
2018-07-28T10:48:10.053Z,42.50
2018-07-28T10:49:10.081Z,42.30
2018-07-28T10:50:10.111Z,42.89
2018-07-28T10:51:10.137Z,43.08
2018-07-28T10:52:10.158Z,43.77
2018-07-28T10:53:10.178Z,43.77
2018-07-28T10:54:10.205Z,43.69
2018-07-28T10:55:10.231Z,43.95
2018-07-28T10:56:10.262Z,44.73
2018-07-28T10:57:10.292Z,45.31
2018-07-28T10:58:10.309Z,45.70
2018-07-28T10:59:10.342Z,46.58
2018-07-28T11:00:10.485Z,46.58
2018-07-28T11:01:10.390Z,46.85
2018-07-28T11:02:10.425Z,47.07
2018-07-28T11:03:10.440Z,46.88
2018-07-28T11:04:10.463Z,46.68
2018-07-28T11:05:10.493Z,46.60
2018-07-28T11:06:10.529Z,46.89
2018-07-28T11:07:10.543Z,47.09
2018-07-28T11:08:10.603Z,47.48
2018-07-28T11:09:10.621Z,47.28
2018-07-28T11:10:10.625Z,47.95
2018-07-28T11:11:10.666Z,47.19
2018-07-28T11:12:10.676Z,47.28
2018-07-28T11:13:10.699Z,47.50
2018-07-28T11:14:10.727Z,47.75
2018-07-28T11:15:10.770Z,47.56
2018-07-28T11:16:10.783Z,47.46
2018-07-28T11:17:10.801Z,48.05
2018-07-28T11:18:10.832Z,47.66
2018-07-28T11:19:10.852Z,48.51
2018-07-28T11:20:10.880Z,48.14
2018-07-28T11:21:10.910Z,47.77
2018-07-28T11:22:10.949Z,48.85
2018-07-28T11:23:10.960Z,49.61
2018-07-28T11:24:10.983Z,49.12
2018-07-28T11:25:11.007Z,48.83
2018-07-28T11:26:11.100Z,49.80
2018-07-28T11:27:11.067Z,50.73
2018-07-28T11:28:11.104Z,51.97
2018-07-28T11:29:11.118Z,51.24
2018-07-28T11:30:11.145Z,50.92
2018-07-28T11:31:11.162Z,51.21
2018-07-28T11:32:11.192Z,51.24
2018-07-28T11:33:11.283Z,49.71
2018-07-28T11:34:11.250Z,50.00
2018-07-28T11:35:11.265Z,49.04
2018-07-28T11:36:11.312Z,48.48
2018-07-28T11:37:11.316Z,47.82
2018-07-28T11:38:11.349Z,46.84
2018-07-28T11:39:11.376Z,48.94
2018-07-28T11:40:11.396Z,48.77
2018-07-28T11:41:11.423Z,48.07
2018-07-28T11:42:11.448Z,48.73
2018-07-28T11:43:11.470Z,48.55
2018-07-28T11:44:11.498Z,47.85
2018-07-28T11:45:11.524Z,48.34
2018-07-28T11:46:11.557Z,47.58
2018-07-28T11:47:11.577Z,47.58
2018-07-28T11:48:11.600Z,47.75
2018-07-28T11:49:11.627Z,46.62
2018-07-28T11:50:11.651Z,46.14
2018-07-28T11:51:11.713Z,47.07
2018-07-28T11:52:11.719Z,46.80
2018-07-28T11:53:11.729Z,46.43
2018-07-28T11:54:11.769Z,46.43
2018-07-28T11:55:11.785Z,46.33
2018-07-28T11:56:11.814Z,46.80
2018-07-28T11:57:11.856Z,47.48
2018-07-28T11:58:11.932Z,46.55
2018-07-28T11:59:11.890Z,46.16
2018-07-28T12:00:11.922Z,45.37
2018-07-28T12:01:11.945Z,45.23
2018-07-28T12:02:11.969Z,45.10
2018-07-28T12:03:11.998Z,46.43
2018-07-28T12:04:12.018Z,46.36
2018-07-28T12:05:12.053Z,47.46
2018-07-28T12:06:12.080Z,47.95
2018-07-28T12:07:12.098Z,47.38
2018-07-28T12:08:12.125Z,46.70
2018-07-28T12:09:12.153Z,47.28
2018-07-28T12:10:12.175Z,47.38
2018-07-28T12:11:12.206Z,46.36
2018-07-28T12:12:12.228Z,45.94
2018-07-28T12:13:12.255Z,46.04
2018-07-28T12:14:12.280Z,45.67
2018-07-28T12:15:12.303Z,45.76
2018-07-28T12:16:12.337Z,45.37
2018-07-28T12:17:12.369Z,44.71
2018-07-28T12:18:12.453Z,45.14
2018-07-28T12:19:12.413Z,46.82
2018-07-28T12:20:12.457Z,45.45
2018-07-28T12:21:12.470Z,45.45
2018-07-28T12:22:12.494Z,45.28
2018-07-28T12:23:12.521Z,43.73
2018-07-28T12:24:12.560Z,42.78
2018-07-28T12:25:12.567Z,42.70
2018-07-28T12:26:12.599Z,42.72
2018-07-28T12:27:12.641Z,42.60
2018-07-28T12:28:12.653Z,42.29
2018-07-28T12:29:12.672Z,43.46
2018-07-28T12:30:12.716Z,42.80
2018-07-28T12:31:12.725Z,41.84
2018-07-28T12:32:12.750Z,41.94
2018-07-28T12:33:12.783Z,41.60
2018-07-28T12:34:12.817Z,42.29
2018-07-28T12:35:12.830Z,41.82
2018-07-28T12:36:12.857Z,41.13
2018-07-28T12:37:12.881Z,40.95
2018-07-28T12:38:12.922Z,41.25
2018-07-28T12:39:12.949Z,40.48
2018-07-28T12:40:12.962Z,40.09
2018-07-28T12:41:12.988Z,39.49
2018-07-28T12:42:13.023Z,39.51
2018-07-28T12:43:13.041Z,39.37
2018-07-28T12:44:13.073Z,39.76
2018-07-28T12:45:13.102Z,40.25
2018-07-28T12:46:13.127Z,39.86
2018-07-28T12:47:13.152Z,41.00
2018-07-28T12:48:13.173Z,41.00
2018-07-28T12:49:13.203Z,41.11
2018-07-28T12:50:13.235Z,41.46
2018-07-28T12:51:13.259Z,41.56
2018-07-28T12:52:13.279Z,41.39
2018-07-28T12:53:13.305Z,41.09